Chance, Maryland
Current Conditions -  °F | °C
As of 9:58 AM on Monday 22 Dec 2014 (Local Time) from KTGI Reporting Station
Overcast Overcast  
Wind Chill: 32°   Ceiling: 9000
Heat Index: 39°   Visibility: 7mi
Dew Point: 37°   Wind: 13mph
Humidity: 93%   Direction: 50°NE
Pressure: 30.25"   Gusts: 16mph
Location:  38.17°N, 75.94°W
Report Text: KTGI 221458Z AUTO 05011G14KT 7SM SCT041 SCT065 OVC090 04/03 A3025 RMK AO1 P0001
Loading
Personal Weather Stations






























Interactive Weather Map New forecast layout! Learn more

10-Day Weather Forecast

Advertisements
Track Severe Weather on mobile